sensor_id;sensor_type;location;lat;lon;timestamp;pressure;altitude;pressure_sealevel;temperature;humidity
21760;BME280;11041;50.854;20.580;2022-10-16T00:01:18;98928.78;;;12.70;76.01
21760;BME280;11041;50.854;20.580;2022-10-16T00:03:46;98943.56;;;12.74;76.05
21760;BME280;11041;50.854;20.580;2022-10-16T00:06:15;98947.59;;;12.76;76.08
21760;BME280;11041;50.854;20.580;2022-10-16T00:08:43;98937.88;;;12.79;76.18
21760;BME280;11041;50.854;20.580;2022-10-16T00:11:25;98949.38;;;12.81;76.34
21760;BME280;11041;50.854;20.580;2022-10-16T00:13:57;98937.72;;;12.75;75.98
21760;BME280;11041;50.854;20.580;2022-10-16T00:16:25;98931.72;;;12.65;75.64
21760;BME280;11041;50.854;20.580;2022-10-16T00:18:52;98936.41;;;12.64;75.77
21760;BME280;11041;50.854;20.580;2022-10-16T00:21:25;98962.69;;;12.79;75.45
21760;BME280;11041;50.854;20.580;2022-10-16T00:24:06;98937.56;;;12.63;75.91
21760;BME280;11041;50.854;20.580;2022-10-16T00:26:34;98934.97;;;12.67;75.83
21760;BME280;11041;50.854;20.580;2022-10-16T00:29:03;98958.97;;;12.75;75.56
21760;BME280;11041;50.854;20.580;2022-10-16T00:31:30;98969.16;;;12.74;75.90
21760;BME280;11041;50.854;20.580;2022-10-16T00:33:57;98964.00;;;12.73;75.88
21760;BME280;11041;50.854;20.580;2022-10-16T00:36:26;98967.72;;;12.68;75.82
21760;BME280;11041;50.854;20.580;2022-10-16T00:38:56;98976.50;;;12.70;75.80
21760;BME280;11041;50.854;20.580;2022-10-16T00:41:26;98982.63;;;12.67;75.91
21760;BME280;11041;50.854;20.580;2022-10-16T00:43:58;98967.88;;;12.54;76.11
21760;BME280;11041;50.854;20.580;2022-10-16T00:46:33;98967.06;;;12.54;76.26
21760;BME280;11041;50.854;20.580;2022-10-16T00:49:14;98973.69;;;12.53;76.35
21760;BME280;11041;50.854;20.580;2022-10-16T00:51:53;98978.59;;;12.56;76.56
21760;BME280;11041;50.854;20.580;2022-10-16T00:54:31;98965.78;;;12.51;76.62
21760;BME280;11041;50.854;20.580;2022-10-16T00:57:03;98961.53;;;12.45;77.01
21760;BME280;11041;50.854;20.580;2022-10-16T00:59:40;98982.47;;;12.55;76.97
21760;BME280;11041;50.854;20.580;2022-10-16T01:02:11;98957.00;;;12.41;76.95
21760;BME280;11041;50.854;20.580;2022-10-16T01:04:49;98980.34;;;12.52;76.92
21760;BME280;11041;50.854;20.580;2022-10-16T01:07:34;98967.38;;;12.52;77.06
21760;BME280;11041;50.854;20.580;2022-10-16T01:13:10;98980.66;;;12.50;77.07
21760;BME280;11041;50.854;20.580;2022-10-16T01:21:48;98972.22;;;12.38;77.61
21760;BME280;11041;50.854;20.580;2022-10-16T01:24:31;98965.59;;;12.39;77.79
21760;BME280;11041;50.854;20.580;2022-10-16T01:27:38;98978.53;;;12.39;77.69
21760;BME280;11041;50.854;20.580;2022-10-16T01:30:26;98969.97;;;12.31;78.11
21760;BME280;11041;50.854;20.580;2022-10-16T01:33:26;98977.41;;;12.31;77.95
21760;BME280;11041;50.854;20.580;2022-10-16T01:36:10;98981.28;;;12.30;78.27
21760;BME280;11041;50.854;20.580;2022-10-16T01:38:40;98961.19;;;12.21;78.09
21760;BME280;11041;50.854;20.580;2022-10-16T01:41:21;98976.09;;;12.28;78.38
21760;BME280;11041;50.854;20.580;2022-10-16T01:44:32;98984.53;;;12.32;78.13
21760;BME280;11041;50.854;20.580;2022-10-16T01:47:00;98986.31;;;12.28;78.25
21760;BME280;11041;50.854;20.580;2022-10-16T01:49:32;98993.63;;;12.32;78.72
21760;BME280;11041;50.854;20.580;2022-10-16T01:52:05;98971.38;;;12.20;78.43
21760;BME280;11041;50.854;20.580;2022-10-16T01:54:37;98964.25;;;12.19;78.90
21760;BME280;11041;50.854;20.580;2022-10-16T01:57:07;98970.59;;;12.20;79.11
21760;BME280;11041;50.854;20.580;2022-10-16T01:59:40;98987.47;;;12.27;78.95
21760;BME280;11041;50.854;20.580;2022-10-16T02:02:11;98985.50;;;12.27;78.76
21760;BME280;11041;50.854;20.580;2022-10-16T02:04:47;98972.03;;;12.17;78.81
21760;BME280;11041;50.854;20.580;2022-10-16T02:07:16;98978.84;;;12.20;78.63
21760;BME280;11041;50.854;20.580;2022-10-16T02:09:43;98991.81;;;12.28;78.80
21760;BME280;11041;50.854;20.580;2022-10-16T02:12:23;98977.56;;;12.17;78.95
21760;BME280;11041;50.854;20.580;2022-10-16T02:14:52;98996.84;;;12.26;78.46
21760;BME280;11041;50.854;20.580;2022-10-16T02:17:20;98996.84;;;12.26;78.70
21760;BME280;11041;50.854;20.580;2022-10-16T02:19:49;98977.56;;;12.17;78.59
21760;BME280;11041;50.854;20.580;2022-10-16T02:22:32;98984.47;;;12.14;78.82
21760;BME280;11041;50.854;20.580;2022-10-16T02:25:32;98989.72;;;12.25;78.91
21760;BME280;11041;50.854;20.580;2022-10-16T02:28:16;98986.13;;;12.15;78.63
21760;BME280;11041;50.854;20.580;2022-10-16T02:30:58;99000.25;;;12.23;78.70
21760;BME280;11041;50.854;20.580;2022-10-16T02:33:28;98997.78;;;12.21;78.88
21760;BME280;11041;50.854;20.580;2022-10-16T02:35:57;98978.97;;;12.14;78.75
21760;BME280;11041;50.854;20.580;2022-10-16T02:38:25;98989.03;;;12.19;78.79
21760;BME280;11041;50.854;20.580;2022-10-16T02:40:53;98990.97;;;12.19;78.67
21760;BME280;11041;50.854;20.580;2022-10-16T02:43:21;98968.59;;;12.11;78.28
21760;BME280;11041;50.854;20.580;2022-10-16T02:45:47;98986.13;;;12.15;78.82
21760;BME280;11041;50.854;20.580;2022-10-16T02:48:14;98977.22;;;12.10;78.21
21760;BME280;11041;50.854;20.580;2022-10-16T02:50:41;98986.28;;;12.10;78.75
21760;BME280;11041;50.854;20.580;2022-10-16T02:53:07;98974.72;;;12.00;78.39
21760;BME280;11041;50.854;20.580;2022-10-16T02:55:34;98977.63;;;11.94;78.51
21760;BME280;11041;50.854;20.580;2022-10-16T02:58:00;98982.63;;;11.92;78.61
21760;BME280;11041;50.854;20.580;2022-10-16T03:00:26;98983.78;;;11.91;78.97
21760;BME280;11041;50.854;20.580;2022-10-16T03:02:54;98986.16;;;11.84;78.95
21760;BME280;11041;50.854;20.580;2022-10-16T03:05:21;98998.19;;;11.88;79.16
21760;BME280;11041;50.854;20.580;2022-10-16T03:07:47;98998.78;;;11.85;79.58
21760;BME280;11041;50.854;20.580;2022-10-16T03:10:14;99011.63;;;11.90;79.48
21760;BME280;11041;50.854;20.580;2022-10-16T03:12:41;98999.09;;;11.84;79.68
21760;BME280;11041;50.854;20.580;2022-10-16T03:15:08;99008.38;;;11.88;79.69
21760;BME280;11041;50.854;20.580;2022-10-16T03:17:36;98985.00;;;11.77;79.78
21760;BME280;11041;50.854;20.580;2022-10-16T03:20:03;99000.06;;;11.79;79.62
21760;BME280;11041;50.854;20.580;2022-10-16T03:22:30;99003.13;;;11.78;79.53
21760;BME280;11041;50.854;20.580;2022-10-16T03:24:56;99019.00;;;11.81;79.84
21760;BME280;11041;50.854;20.580;2022-10-16T03:27:23;99011.88;;;11.80;79.77
21760;BME280;11041;50.854;20.580;2022-10-16T03:29:49;99017.38;;;11.80;79.53
21760;BME280;11041;50.854;20.580;2022-10-16T03:32:16;99007.59;;;11.65;79.88
21760;BME280;11041;50.854;20.580;2022-10-16T03:34:42;99019.41;;;11.65;79.81
21760;BME280;11041;50.854;20.580;2022-10-16T03:37:08;99020.19;;;11.57;80.23
21760;BME280;11041;50.854;20.580;2022-10-16T03:39:35;99034.63;;;11.63;80.20
21760;BME280;11041;50.854;20.580;2022-10-16T03:42:02;99023.06;;;11.52;80.12
21760;BME280;11041;50.854;20.580;2022-10-16T03:44:28;99033.09;;;11.48;80.32
21760;BME280;11041;50.854;20.580;2022-10-16T03:46:55;99041.00;;;11.49;80.52
21760;BME280;11041;50.854;20.580;2022-10-16T03:49:21;99045.69;;;11.49;80.77
21760;BME280;11041;50.854;20.580;2022-10-16T03:51:48;99037.88;;;11.42;80.60
21760;BME280;11041;50.854;20.580;2022-10-16T03:54:14;99049.59;;;11.48;80.73
21760;BME280;11041;50.854;20.580;2022-10-16T03:56:41;99052.84;;;11.50;80.90
21760;BME280;11041;50.854;20.580;2022-10-16T03:59:08;99047.94;;;11.47;80.76
21760;BME280;11041;50.854;20.580;2022-10-16T04:01:34;99041.63;;;11.46;80.95
21760;BME280;11041;50.854;20.580;2022-10-16T04:04:01;99059.19;;;11.59;80.99
21760;BME280;11041;50.854;20.580;2022-10-16T04:06:28;99069.09;;;11.60;80.86
21760;BME280;11041;50.854;20.580;2022-10-16T04:08:54;99048.31;;;11.54;81.08
21760;BME280;11041;50.854;20.580;2022-10-16T04:11:20;99046.06;;;11.56;80.92
21760;BME280;11041;50.854;20.580;2022-10-16T04:13:47;99065.69;;;11.63;80.62
21760;BME280;11041;50.854;20.580;2022-10-16T04:16:14;99073.53;;;11.70;80.52
21760;BME280;11041;50.854;20.580;2022-10-16T04:18:40;99075.50;;;11.78;80.55
21760;BME280;11041;50.854;20.580;2022-10-16T04:21:07;99076.63;;;11.77;80.78
21760;BME280;11041;50.854;20.580;2022-10-16T04:23:34;99071.94;;;11.78;80.77
21760;BME280;11041;50.854;20.580;2022-10-16T04:26:01;99085.06;;;11.81;80.67
21760;BME280;11041;50.854;20.580;2022-10-16T04:28:28;99063.88;;;11.81;81.02
21760;BME280;11041;50.854;20.580;2022-10-16T04:30:55;99057.88;;;11.79;80.82
21760;BME280;11041;50.854;20.580;2022-10-16T04:33:21;99062.25;;;11.80;80.43
21760;BME280;11041;50.854;20.580;2022-10-16T04:35:48;99065.88;;;11.89;81.04
21760;BME280;11041;50.854;20.580;2022-10-16T04:38:15;99076.25;;;11.92;80.57
21760;BME280;11041;50.854;20.580;2022-10-16T04:40:42;99063.94;;;11.90;80.36
21760;BME280;11041;50.854;20.580;2022-10-16T04:43:09;99055.19;;;11.88;80.83
21760;BME280;11041;50.854;20.580;2022-10-16T04:45:35;99064.44;;;11.92;80.39
21760;BME280;11041;50.854;20.580;2022-10-16T04:48:02;99063.00;;;11.94;80.77
21760;BME280;11041;50.854;20.580;2022-10-16T04:50:28;99071.94;;;12.00;80.81
21760;BME280;11041;50.854;20.580;2022-10-16T04:52:55;99052.91;;;11.90;80.85
21760;BME280;11041;50.854;20.580;2022-10-16T04:55:21;99071.44;;;11.98;80.82
21760;BME280;11041;50.854;20.580;2022-10-16T04:57:48;99066.44;;;12.00;80.76
21760;BME280;11041;50.854;20.580;2022-10-16T05:00:15;99069.19;;;12.00;80.40
21760;BME280;11041;50.854;20.580;2022-10-16T05:02:41;99060.75;;;11.97;80.35
21760;BME280;11041;50.854;20.580;2022-10-16T05:05:08;99069.31;;;11.95;80.35
21760;BME280;11041;50.854;20.580;2022-10-16T05:07:34;99075.16;;;12.02;80.07
21760;BME280;11041;50.854;20.580;2022-10-16T05:10:01;99076.16;;;12.06;80.29
21760;BME280;11041;50.854;20.580;2022-10-16T05:12:28;99072.56;;;11.97;80.29
21760;BME280;11041;50.854;20.580;2022-10-16T05:14:54;99084.56;;;12.01;80.56
21760;BME280;11041;50.854;20.580;2022-10-16T05:17:26;99084.56;;;12.01;80.51
21760;BME280;11041;50.854;20.580;2022-10-16T05:19:52;99078.56;;;11.99;80.64
21760;BME280;11041;50.854;20.580;2022-10-16T05:22:19;99073.38;;;11.98;80.51
21760;BME280;11041;50.854;20.580;2022-10-16T05:24:45;99088.34;;;12.05;80.05
21760;BME280;11041;50.854;20.580;2022-10-16T05:27:12;99075.16;;;12.02;80.40
21760;BME280;11041;50.854;20.580;2022-10-16T05:29:47;99071.09;;;12.00;80.43
21760;BME280;11041;50.854;20.580;2022-10-16T05:32:15;99092.91;;;12.10;80.30
21760;BME280;11041;50.854;20.580;2022-10-16T05:34:43;99078.75;;;12.03;80.13
21760;BME280;11041;50.854;20.580;2022-10-16T05:37:10;99083.78;;;12.09;80.18
21760;BME280;11041;50.854;20.580;2022-10-16T05:39:41;99090.94;;;12.10;80.41
21760;BME280;11041;50.854;20.580;2022-10-16T05:42:07;99087.84;;;12.12;80.34
21760;BME280;11041;50.854;20.580;2022-10-16T05:44:34;99101.81;;;12.15;80.61
21760;BME280;11041;50.854;20.580;2022-10-16T05:47:00;99086.69;;;12.04;80.50
21760;BME280;11041;50.854;20.580;2022-10-16T05:49:27;99091.69;;;12.02;81.03
21760;BME280;11041;50.854;20.580;2022-10-16T05:51:53;99110.22;;;12.10;80.61
21760;BME280;11041;50.854;20.580;2022-10-16T05:54:20;99092.84;;;12.01;80.63
21760;BME280;11041;50.854;20.580;2022-10-16T05:56:46;99095.59;;;12.01;80.62
21760;BME280;11041;50.854;20.580;2022-10-16T05:59:13;99095.91;;;12.00;80.93
21760;BME280;11041;50.854;20.580;2022-10-16T06:01:39;99105.81;;;12.01;81.12
21760;BME280;11041;50.854;20.580;2022-10-16T06:04:31;99127.13;;;11.95;80.99
21760;BME280;11041;50.854;20.580;2022-10-16T06:07:23;99107.72;;;11.78;81.01
21760;BME280;11041;50.854;20.580;2022-10-16T06:10:15;99110.63;;;11.72;81.14
21760;BME280;11041;50.854;20.580;2022-10-16T06:13:06;99122.81;;;11.80;81.66
21760;BME280;11041;50.854;20.580;2022-10-16T06:15:59;99109.09;;;11.66;82.12
21760;BME280;11041;50.854;20.580;2022-10-16T06:18:55;99122.78;;;11.71;82.13
21760;BME280;11041;50.854;20.580;2022-10-16T06:21:46;99147.28;;;11.82;82.34
21760;BME280;11041;50.854;20.580;2022-10-16T06:24:37;99135.78;;;11.80;82.81
21760;BME280;11041;50.854;20.580;2022-10-16T06:27:28;99139.03;;;11.82;82.51
21760;BME280;11041;50.854;20.580;2022-10-16T06:30:19;99143.50;;;11.91;82.91
21760;BME280;11041;50.854;20.580;2022-10-16T06:33:11;99167.56;;;12.08;82.53
21760;BME280;11041;50.854;20.580;2022-10-16T06:36:10;99163.06;;;12.12;82.70
21760;BME280;11041;50.854;20.580;2022-10-16T06:56:47;99166.84;;;12.56;80.98
21760;BME280;11041;50.854;20.580;2022-10-16T06:59:14;99177.72;;;12.62;81.07
21760;BME280;11041;50.854;20.580;2022-10-16T07:01:40;99194.16;;;12.75;80.66
21760;BME280;11041;50.854;20.580;2022-10-16T07:04:07;99198.38;;;12.82;80.70
21760;BME280;11041;50.854;20.580;2022-10-16T07:06:34;99199.72;;;12.93;80.76
21760;BME280;11041;50.854;20.580;2022-10-16T07:09:04;99208.53;;;13.04;80.53
21760;BME280;11041;50.854;20.580;2022-10-16T07:11:31;99209.34;;;13.13;80.66
21760;BME280;11041;50.854;20.580;2022-10-16T07:13:58;99198.00;;;13.14;80.34
21760;BME280;11041;50.854;20.580;2022-10-16T07:16:31;99217.38;;;13.32;80.18
21760;BME280;11041;50.854;20.580;2022-10-16T07:19:03;99207.00;;;13.37;80.08
21760;BME280;11041;50.854;20.580;2022-10-16T07:21:33;99208.16;;;13.54;79.85
21760;BME280;11041;50.854;20.580;2022-10-16T07:24:06;99207.84;;;13.64;79.67
21760;BME280;11041;50.854;20.580;2022-10-16T07:26:36;99187.84;;;13.67;78.83
21760;BME280;11041;50.854;20.580;2022-10-16T07:29:03;99196.78;;;13.73;78.54
21760;BME280;11041;50.854;20.580;2022-10-16T07:31:30;99191.28;;;13.81;78.58
21760;BME280;11041;50.854;20.580;2022-10-16T07:33:59;99193.03;;;13.95;78.08
21760;BME280;11041;50.854;20.580;2022-10-16T07:36:26;99187.34;;;14.00;77.60
21760;BME280;11041;50.854;20.580;2022-10-16T07:38:53;99211.22;;;14.13;77.47
21760;BME280;11041;50.854;20.580;2022-10-16T07:41:20;99201.81;;;14.14;76.96
21760;BME280;11041;50.854;20.580;2022-10-16T07:43:52;99201.13;;;14.17;76.67
21760;BME280;11041;50.854;20.580;2022-10-16T07:46:22;99213.81;;;14.27;76.17
21760;BME280;11041;50.854;20.580;2022-10-16T07:48:50;99205.50;;;14.27;76.42
21760;BME280;11041;50.854;20.580;2022-10-16T07:51:19;99208.22;;;14.36;76.14
21760;BME280;11041;50.854;20.580;2022-10-16T07:53:47;99221.72;;;14.55;75.78
21760;BME280;11041;50.854;20.580;2022-10-16T07:56:16;99207.25;;;14.58;75.84
21760;BME280;11041;50.854;20.580;2022-10-16T07:58:43;99219.22;;;14.70;75.69
21760;BME280;11041;50.854;20.580;2022-10-16T08:01:14;99220.94;;;14.84;75.60
21760;BME280;11041;50.854;20.580;2022-10-16T08:03:50;99213.50;;;14.84;75.40
21760;BME280;11041;50.854;20.580;2022-10-16T08:06:19;99213.97;;;14.86;73.47
21760;BME280;11041;50.854;20.580;2022-10-16T08:08:47;99230.00;;;15.02;73.53
21760;BME280;11041;50.854;20.580;2022-10-16T08:11:14;99216.69;;;14.95;73.16
21760;BME280;11041;50.854;20.580;2022-10-16T08:13:41;99226.75;;;15.00;73.55
21760;BME280;11041;50.854;20.580;2022-10-16T08:16:09;99240.00;;;15.15;73.83
21760;BME280;11041;50.854;20.580;2022-10-16T08:18:38;99235.16;;;15.12;74.28
21760;BME280;11041;50.854;20.580;2022-10-16T08:21:06;99232.19;;;15.17;74.24
21760;BME280;11041;50.854;20.580;2022-10-16T08:23:34;99244.03;;;15.26;73.57
21760;BME280;11041;50.854;20.580;2022-10-16T08:26:07;99252.31;;;15.35;73.68
21760;BME280;11041;50.854;20.580;2022-10-16T08:28:35;99250.47;;;15.39;73.41
21760;BME280;11041;50.854;20.580;2022-10-16T08:31:14;99243.00;;;15.40;73.10
21760;BME280;11041;50.854;20.580;2022-10-16T08:33:43;99258.06;;;15.51;72.79
21760;BME280;11041;50.854;20.580;2022-10-16T08:36:13;99268.00;;;15.52;71.87
21760;BME280;11041;50.854;20.580;2022-10-16T08:38:40;99262.47;;;15.52;71.92
21760;BME280;11041;50.854;20.580;2022-10-16T08:44:36;99259.50;;;15.57;72.41
21760;BME280;11041;50.854;20.580;2022-10-16T08:47:24;99243.06;;;15.52;72.02
21760;BME280;11041;50.854;20.580;2022-10-16T08:50:10;99243.69;;;15.58;71.90
21760;BME280;11041;50.854;20.580;2022-10-16T08:52:43;99253.91;;;15.66;71.99
21760;BME280;11041;50.854;20.580;2022-10-16T08:58:19;99226.50;;;15.73;71.65
21760;BME280;11041;50.854;20.580;2022-10-16T09:00:59;99253.88;;;15.95;71.82
21760;BME280;11041;50.854;20.580;2022-10-16T09:03:54;99243.63;;;16.08;70.92
21760;BME280;11041;50.854;20.580;2022-10-16T09:15:17;99249.25;;;16.66;68.26
21760;BME280;11041;50.854;20.580;2022-10-16T09:21:05;99250.72;;;16.85;68.33
21760;BME280;11041;50.854;20.580;2022-10-16T09:23:37;99253.03;;;16.95;67.01
21760;BME280;11041;50.854;20.580;2022-10-16T09:26:09;99233.59;;;16.95;66.71
21760;BME280;11041;50.854;20.580;2022-10-16T09:28:37;99256.19;;;17.06;66.18
21760;BME280;11041;50.854;20.580;2022-10-16T09:31:04;99238.56;;;17.01;65.96
21760;BME280;11041;50.854;20.580;2022-10-16T09:33:36;99232.69;;;17.03;66.31
21760;BME280;11041;50.854;20.580;2022-10-16T09:36:05;99253.88;;;17.20;65.72
21760;BME280;11041;50.854;20.580;2022-10-16T09:38:36;99252.81;;;17.24;66.29
21760;BME280;11041;50.854;20.580;2022-10-16T09:41:20;99250.38;;;17.35;64.97
21760;BME280;11041;50.854;20.580;2022-10-16T09:43:54;99261.50;;;17.35;66.00
21760;BME280;11041;50.854;20.580;2022-10-16T09:46:30;99257.44;;;17.33;66.52
21760;BME280;11041;50.854;20.580;2022-10-16T09:49:04;99238.00;;;17.20;65.21
21760;BME280;11041;50.854;20.580;2022-10-16T09:51:37;99258.81;;;17.27;65.61
21760;BME280;11041;50.854;20.580;2022-10-16T09:56:37;99239.84;;;17.16;66.65
21760;BME280;11041;50.854;20.580;2022-10-16T11:01:54;99238.47;;;18.28;62.12
21760;BME280;11041;50.854;20.580;2022-10-16T11:04:45;99236.50;;;18.28;62.61
21760;BME280;11041;50.854;20.580;2022-10-16T11:07:24;99225.00;;;18.30;63.22
21760;BME280;11041;50.854;20.580;2022-10-16T11:10:23;99234.66;;;18.48;62.34
21760;BME280;11041;50.854;20.580;2022-10-16T11:12:56;99222.34;;;18.49;62.74
21760;BME280;11041;50.854;20.580;2022-10-16T11:15:32;99211.41;;;18.41;62.43
21760;BME280;11041;50.854;20.580;2022-10-16T11:18:29;99218.16;;;18.56;61.93
21760;BME280;11041;50.854;20.580;2022-10-16T11:21:09;99219.56;;;18.49;62.04
21760;BME280;11041;50.854;20.580;2022-10-16T11:23:51;99228.22;;;18.60;62.60
21760;BME280;11041;50.854;20.580;2022-10-16T11:26:27;99226.34;;;18.64;61.60
21760;BME280;11041;50.854;20.580;2022-10-16T11:28:56;99235.44;;;18.77;61.61
21760;BME280;11041;50.854;20.580;2022-10-16T11:31:34;99208.41;;;18.78;61.66
21760;BME280;11041;50.854;20.580;2022-10-16T11:39:26;99208.13;;;18.99;60.19
21760;BME280;11041;50.854;20.580;2022-10-16T11:42:07;99228.88;;;19.17;59.93
21760;BME280;11041;50.854;20.580;2022-10-16T11:45:07;99217.63;;;19.13;60.05
21760;BME280;11041;50.854;20.580;2022-10-16T11:47:45;99212.78;;;19.10;59.21
21760;BME280;11041;50.854;20.580;2022-10-16T11:50:35;99238.28;;;19.28;59.18
21760;BME280;11041;50.854;20.580;2022-10-16T11:56:01;99227.78;;;19.22;60.30
21760;BME280;11041;50.854;20.580;2022-10-16T11:58:53;99219.06;;;19.23;59.71
21760;BME280;11041;50.854;20.580;2022-10-16T12:01:41;99244.81;;;19.36;59.61
21760;BME280;11041;50.854;20.580;2022-10-16T12:04:41;99246.63;;;19.44;59.19
21760;BME280;11041;50.854;20.580;2022-10-16T12:07:27;99247.94;;;19.50;59.69
21760;BME280;11041;50.854;20.580;2022-10-16T12:10:18;99236.56;;;19.40;59.93
21760;BME280;11041;50.854;20.580;2022-10-16T12:12:45;99250.72;;;19.50;59.92
21760;BME280;11041;50.854;20.580;2022-10-16T12:15:34;99246.41;;;19.53;59.80
21760;BME280;11041;50.854;20.580;2022-10-16T12:18:03;99247.75;;;19.59;59.56
21760;BME280;11041;50.854;20.580;2022-10-16T12:20:33;99239.84;;;19.61;58.41
21760;BME280;11041;50.854;20.580;2022-10-16T12:23:05;99242.09;;;19.71;59.54
21760;BME280;11041;50.854;20.580;2022-10-16T12:25:33;99249.38;;;19.76;57.99
21760;BME280;11041;50.854;20.580;2022-10-16T12:28:21;99226.09;;;19.68;58.17
21760;BME280;11041;50.854;20.580;2022-10-16T12:31:10;99233.53;;;19.64;58.62
21760;BME280;11041;50.854;20.580;2022-10-16T12:33:51;99240.59;;;19.58;59.27
21760;BME280;11041;50.854;20.580;2022-10-16T12:36:35;99240.13;;;19.56;59.93
21760;BME280;11041;50.854;20.580;2022-10-16T12:39:03;99232.75;;;19.48;60.29
21760;BME280;11041;50.854;20.580;2022-10-16T12:41:34;99241.84;;;19.45;60.07
21760;BME280;11041;50.854;20.580;2022-10-16T12:44:02;99251.56;;;19.51;59.93
21760;BME280;11041;50.854;20.580;2022-10-16T12:51:41;99242.88;;;19.36;60.11
21760;BME280;11041;50.854;20.580;2022-10-16T13:09:44;99246.38;;;19.33;60.98
21760;BME280;11041;50.854;20.580;2022-10-16T13:12:50;99248.97;;;19.26;60.96
21760;BME280;11041;50.854;20.580;2022-10-16T13:29:30;99243.88;;;19.12;60.63
21760;BME280;11041;50.854;20.580;2022-10-16T13:32:00;99257.63;;;19.21;60.73
21760;BME280;11041;50.854;20.580;2022-10-16T13:34:28;99237.88;;;19.10;60.80
21760;BME280;11041;50.854;20.580;2022-10-16T13:36:55;99255.56;;;19.18;60.95
21760;BME280;11041;50.854;20.580;2022-10-16T13:39:30;99263.72;;;19.11;61.89
21760;BME280;11041;50.854;20.580;2022-10-16T13:42:36;99272.44;;;19.09;62.08
21760;BME280;11041;50.854;20.580;2022-10-16T13:45:32;99269.75;;;19.13;61.41
21760;BME280;11041;50.854;20.580;2022-10-16T13:48:04;99263.91;;;19.02;62.42
21760;BME280;11041;50.854;20.580;2022-10-16T13:50:32;99263.19;;;18.89;62.84
21760;BME280;11041;50.854;20.580;2022-10-16T13:53:14;99263.53;;;18.88;63.36
21760;BME280;11041;50.854;20.580;2022-10-16T13:55:40;99260.22;;;18.82;62.32
21760;BME280;11041;50.854;20.580;2022-10-16T13:58:12;99255.06;;;18.68;63.16
21760;BME280;11041;50.854;20.580;2022-10-16T14:01:04;99256.75;;;18.73;63.43
21760;BME280;11041;50.854;20.580;2022-10-16T14:03:34;99251.00;;;18.66;63.17
21760;BME280;11041;50.854;20.580;2022-10-16T14:06:21;99266.75;;;18.74;63.39
21760;BME280;11041;50.854;20.580;2022-10-16T14:08:59;99269.53;;;18.74;63.25
21760;BME280;11041;50.854;20.580;2022-10-16T14:11:27;99243.84;;;18.65;63.03
21760;BME280;11041;50.854;20.580;2022-10-16T14:13:56;99252.13;;;18.77;62.50
21760;BME280;11041;50.854;20.580;2022-10-16T14:16:30;99255.63;;;18.74;62.82
21760;BME280;11041;50.854;20.580;2022-10-16T14:19:04;99256.91;;;18.77;61.69
21760;BME280;11041;50.854;20.580;2022-10-16T14:21:40;99271.81;;;18.84;62.04
21760;BME280;11041;50.854;20.580;2022-10-16T14:24:13;99264.19;;;18.81;61.09
21760;BME280;11041;50.854;20.580;2022-10-16T14:26:47;99269.66;;;18.78;62.23
21760;BME280;11041;50.854;20.580;2022-10-16T14:29:19;99280.66;;;18.74;61.95
21760;BME280;11041;50.854;20.580;2022-10-16T14:32:01;99281.34;;;18.71;61.83
21760;BME280;11041;50.854;20.580;2022-10-16T14:34:35;99290.09;;;18.69;61.20
21760;BME280;11041;50.854;20.580;2022-10-16T14:37:27;99280.16;;;18.56;61.92
21760;BME280;11041;50.854;20.580;2022-10-16T14:39:55;99282.41;;;18.50;62.29
21760;BME280;11041;50.854;20.580;2022-10-16T14:42:25;99284.41;;;18.50;63.04
21760;BME280;11041;50.854;20.580;2022-10-16T14:44:54;99294.50;;;18.42;63.34
21760;BME280;11041;50.854;20.580;2022-10-16T14:47:25;99285.06;;;18.31;63.66
21760;BME280;11041;50.854;20.580;2022-10-16T14:49:53;99292.22;;;18.32;63.89
21760;BME280;11041;50.854;20.580;2022-10-16T14:52:25;99275.13;;;18.18;64.17
21760;BME280;11041;50.854;20.580;2022-10-16T14:54:52;99291.81;;;18.18;64.12
21760;BME280;11041;50.854;20.580;2022-10-16T14:57:27;99299.81;;;18.19;64.95
21760;BME280;11041;50.854;20.580;2022-10-16T14:59:57;99291.59;;;18.10;65.22
21760;BME280;11041;50.854;20.580;2022-10-16T15:02:32;99278.09;;;17.97;65.98
21760;BME280;11041;50.854;20.580;2022-10-16T15:05:24;99295.13;;;17.95;66.35
21760;BME280;11041;50.854;20.580;2022-10-16T15:07:53;99295.97;;;17.83;66.94
21760;BME280;11041;50.854;20.580;2022-10-16T15:10:24;99296.88;;;17.75;67.52
21760;BME280;11041;50.854;20.580;2022-10-16T15:12:52;99297.09;;;17.70;67.89
21760;BME280;11041;50.854;20.580;2022-10-16T15:15:26;99272.72;;;17.51;68.29
21760;BME280;11041;50.854;20.580;2022-10-16T15:17:59;99296.09;;;17.50;68.90
21760;BME280;11041;50.854;20.580;2022-10-16T15:20:36;99293.78;;;17.40;68.59
21760;BME280;11041;50.854;20.580;2022-10-16T15:23:10;99301.97;;;17.36;69.12
21760;BME280;11041;50.854;20.580;2022-10-16T15:28:14;99299.09;;;17.20;69.50
21760;BME280;11041;50.854;20.580;2022-10-16T15:30:42;99295.47;;;17.08;69.90
21760;BME280;11041;50.854;20.580;2022-10-16T15:33:21;99305.31;;;17.05;70.25
21760;BME280;11041;50.854;20.580;2022-10-16T15:35:51;99312.03;;;17.04;70.19
21760;BME280;11041;50.854;20.580;2022-10-16T15:38:20;99292.28;;;16.72;70.59
21760;BME280;11041;50.854;20.580;2022-10-16T15:40:49;99330.66;;;16.91;70.56
21760;BME280;11041;50.854;20.580;2022-10-16T15:43:16;99326.44;;;16.85;70.81
21760;BME280;11041;50.854;20.580;2022-10-16T15:45:42;99328.66;;;16.79;71.27
21760;BME280;11041;50.854;20.580;2022-10-16T15:48:13;99329.72;;;16.66;71.54
21760;BME280;11041;50.854;20.580;2022-10-16T15:50:41;99335.63;;;16.65;72.04
21760;BME280;11041;50.854;20.580;2022-10-16T15:53:08;99342.66;;;16.62;72.14
21760;BME280;11041;50.854;20.580;2022-10-16T15:55:35;99354.31;;;16.55;72.09
21760;BME280;11041;50.854;20.580;2022-10-16T15:58:04;99350.91;;;16.50;72.45